TUPJ/RAD METAR and TAF weather

Enter ICAO airport designator
Station Type Date Time Source
TUPJ METAR 2020/07/05 23:00 UTC NOAA

TUPJ 052300Z 10009KT 10SM SCT018 SCT038 29/23 A3000 RMK Q1016 VIS16KM


Station Type Date Time Source
TUPJ Decoded METAR 2020/07/05 23:00 UTC NOAA

Beef Island, Tortola, British Virgin Islands (TUPJ) 18-27N 064-32W
Jul 05, 2020 - 07:00 PM EDT / 2020.07.05 2300 UTC
Wind: from the E (100 degrees) at 10 MPH (9 KT):0
Visibility: 10 mile(s):0
Sky conditions: partly cloudy
Temperature: 84 F (29 C)
Dew Point: 73 F (23 C)
Relative Humidity: 70%
Pressure (altimeter): 30 in. Hg (1015 hPa)
ob: TUPJ 052300Z 10009KT 10SM SCT018 SCT038 29/23 A3000 RMK Q1016 VIS16KM
cycle: 23

Station Type Date Time Source
TUPJ TAF 2020/07/06 18:30 UTC NOAA

TAF
AMD TUPJ 060123Z 0518/0618 CNL

Example: see airport list